createdAt,value
2023-03-16T00:01:36.736Z,5.60
2023-03-16T00:04:05.045Z,5.60
2023-03-16T00:06:34.433Z,5.60
2023-03-16T00:09:02.571Z,5.60
2023-03-16T00:11:30.745Z,5.60
2023-03-16T00:13:59.720Z,5.60
2023-03-16T00:16:27.893Z,5.60
2023-03-16T00:18:56.023Z,5.60
2023-03-16T00:21:24.061Z,5.60
2023-03-16T00:23:53.525Z,5.50
2023-03-16T00:26:22.533Z,5.50
2023-03-16T00:28:54.295Z,5.50
2023-03-16T00:31:25.034Z,5.50
2023-03-16T00:33:53.169Z,5.50
2023-03-16T00:36:22.786Z,5.50
2023-03-16T00:38:51.313Z,5.50
2023-03-16T00:41:20.812Z,5.50
2023-03-16T00:43:49.033Z,5.50
2023-03-16T00:46:18.480Z,5.50
2023-03-16T00:48:48.517Z,5.50
2023-03-16T00:51:18.729Z,5.50
2023-03-16T00:53:47.768Z,5.50
2023-03-16T00:56:16.420Z,5.50
2023-03-16T00:58:45.911Z,5.50
2023-03-16T01:01:16.383Z,5.50
2023-03-16T01:03:44.788Z,5.50
2023-03-16T01:06:15.194Z,5.50
2023-03-16T01:08:44.189Z,5.50
2023-03-16T01:11:16.486Z,5.50
2023-03-16T01:13:47.990Z,5.50
2023-03-16T01:16:16.858Z,5.50
2023-03-16T01:18:44.963Z,5.50
2023-03-16T01:21:13.978Z,5.50
2023-03-16T01:23:44.113Z,5.50
2023-03-16T01:26:12.864Z,5.50
2023-03-16T01:28:40.909Z,5.50
2023-03-16T01:31:12.536Z,5.50
2023-03-16T01:33:41.145Z,5.50
2023-03-16T01:36:11.716Z,5.50
2023-03-16T01:38:40.103Z,5.50
2023-03-16T01:41:08.781Z,5.50
2023-03-16T01:43:40.290Z,5.50
2023-03-16T01:46:21.903Z,5.50
2023-03-16T01:49:08.215Z,5.50
2023-03-16T01:51:44.097Z,5.50
2023-03-16T01:54:18.970Z,5.40
2023-03-16T01:56:55.566Z,5.50
2023-03-16T01:59:28.492Z,5.50
2023-03-16T02:01:59.530Z,5.50
2023-03-16T02:04:38.389Z,5.50
2023-03-16T02:07:08.946Z,5.50
2023-03-16T02:09:42.645Z,5.50
2023-03-16T02:12:17.942Z,5.50
2023-03-16T02:14:46.681Z,5.50
2023-03-16T02:17:18.274Z,5.60
2023-03-16T02:19:58.084Z,5.60
2023-03-16T02:22:26.657Z,5.60
2023-03-16T02:24:55.443Z,5.60
2023-03-16T02:27:32.351Z,5.60
2023-03-16T02:30:11.665Z,5.60
2023-03-16T02:32:42.436Z,5.60
2023-03-16T02:35:12.952Z,5.60
2023-03-16T02:37:41.841Z,5.60
2023-03-16T02:40:22.455Z,5.60
2023-03-16T02:42:56.728Z,5.60
2023-03-16T02:45:29.324Z,5.60
2023-03-16T02:47:59.510Z,5.60
2023-03-16T02:50:27.856Z,5.60
2023-03-16T02:52:56.265Z,5.60
2023-03-16T02:55:24.426Z,5.60
2023-03-16T02:57:53.311Z,5.60
2023-03-16T03:00:22.249Z,5.60
2023-03-16T03:02:52.616Z,5.60
2023-03-16T03:05:21.284Z,5.60
2023-03-16T03:07:49.399Z,5.60
2023-03-16T03:10:17.765Z,5.60
2023-03-16T03:12:49.286Z,5.60
2023-03-16T03:15:18.945Z,5.60
2023-03-16T03:17:47.290Z,5.60
2023-03-16T03:20:18.340Z,5.60
2023-03-16T03:22:48.940Z,5.60
2023-03-16T03:25:18.880Z,5.60
2023-03-16T03:27:48.820Z,5.60
2023-03-16T03:30:19.405Z,5.60
2023-03-16T03:32:47.540Z,5.60
2023-03-16T03:35:17.502Z,5.60
2023-03-16T03:37:45.762Z,5.60
2023-03-16T03:40:16.604Z,5.50
2023-03-16T03:42:44.762Z,5.50
2023-03-16T03:45:14.215Z,5.50
2023-03-16T03:47:43.181Z,5.50
2023-03-16T03:50:13.766Z,5.50
2023-03-16T03:52:43.346Z,5.50
2023-03-16T03:55:11.773Z,5.50
2023-03-16T03:57:40.231Z,5.50
2023-03-16T04:00:11.438Z,5.40
2023-03-16T04:02:39.728Z,5.40
2023-03-16T04:05:09.005Z,5.40
2023-03-16T04:07:37.107Z,5.40
2023-03-16T04:10:07.995Z,5.30
2023-03-16T04:12:36.223Z,5.30
2023-03-16T04:15:04.809Z,5.30
2023-03-16T04:17:34.340Z,5.30
2023-03-16T04:20:05.402Z,5.20
2023-03-16T04:22:33.986Z,5.20
2023-03-16T04:25:03.984Z,5.20
2023-03-16T04:27:36.443Z,5.20
2023-03-16T04:30:06.514Z,5.20
2023-03-16T04:32:35.280Z,5.20
2023-03-16T04:35:03.313Z,5.20
2023-03-16T04:37:31.458Z,5.20
2023-03-16T04:39:59.602Z,5.20
2023-03-16T04:42:27.660Z,5.20
2023-03-16T04:44:57.194Z,5.20
2023-03-16T04:47:25.919Z,5.20
2023-03-16T04:49:54.259Z,5.20
2023-03-16T04:52:22.326Z,5.20
2023-03-16T04:54:50.242Z,5.20
2023-03-16T04:57:19.362Z,5.20
2023-03-16T04:59:47.495Z,5.30
2023-03-16T05:02:17.686Z,5.30
2023-03-16T05:04:45.728Z,5.30
2023-03-16T05:07:13.845Z,5.30
2023-03-16T05:09:42.026Z,5.30
2023-03-16T05:12:10.656Z,5.40
2023-03-16T05:14:38.844Z,5.30
2023-03-16T05:17:07.034Z,5.40
2023-03-16T05:19:36.563Z,5.40
2023-03-16T05:22:04.605Z,5.40
2023-03-16T05:24:32.652Z,5.40
2023-03-16T05:27:03.428Z,5.40
2023-03-16T05:29:32.118Z,5.40
2023-03-16T05:32:00.497Z,5.40
2023-03-16T05:34:28.770Z,5.40
2023-03-16T05:36:58.226Z,5.40
2023-03-16T05:39:26.405Z,5.40
2023-03-16T05:41:55.113Z,5.40
2023-03-16T05:44:23.609Z,5.40
2023-03-16T05:46:51.762Z,5.40
2023-03-16T05:49:19.920Z,5.40
2023-03-16T05:51:48.529Z,5.40
2023-03-16T05:54:17.950Z,5.40
2023-03-16T05:56:46.218Z,5.40
2023-03-16T05:59:14.298Z,5.40
2023-03-16T06:01:43.189Z,5.40
2023-03-16T06:04:11.525Z,5.40
2023-03-16T06:06:39.612Z,5.40
2023-03-16T06:09:07.929Z,5.40
2023-03-16T06:11:37.372Z,5.40
2023-03-16T06:14:05.694Z,5.50
2023-03-16T06:16:33.823Z,5.40
2023-03-16T06:19:02.051Z,5.40
2023-03-16T06:21:30.085Z,5.40
2023-03-16T06:23:58.195Z,5.50
2023-03-16T06:26:26.342Z,5.50
2023-03-16T06:28:55.776Z,5.50
2023-03-16T06:31:23.815Z,5.50
2023-03-16T06:33:51.981Z,5.60
2023-03-16T06:36:20.421Z,5.60
2023-03-16T06:38:48.675Z,5.60
2023-03-16T06:41:16.736Z,5.70
2023-03-16T06:43:44.956Z,5.70
2023-03-16T06:46:14.547Z,5.60
2023-03-16T06:48:42.847Z,5.70
2023-03-16T06:51:11.124Z,5.70
2023-03-16T06:53:39.215Z,5.70
2023-03-16T06:56:07.813Z,5.70
2023-03-16T06:58:36.049Z,5.70
2023-03-16T07:01:04.688Z,5.70
2023-03-16T07:03:34.325Z,5.80
2023-03-16T07:06:03.246Z,5.70
2023-03-16T07:08:31.508Z,5.80
2023-03-16T07:10:59.704Z,5.80
2023-03-16T07:13:27.803Z,5.80
2023-03-16T07:15:56.016Z,5.90
2023-03-16T07:18:25.889Z,5.90
2023-03-16T07:20:55.695Z,6.00
2023-03-16T07:23:24.381Z,6.00
2023-03-16T07:25:52.751Z,5.90
2023-03-16T07:28:21.296Z,5.90
2023-03-16T07:31:02.950Z,6.00
2023-03-16T07:33:33.494Z,6.00
2023-03-16T07:36:05.686Z,6.00
2023-03-16T07:38:34.504Z,6.00
2023-03-16T07:41:02.623Z,6.10
2023-03-16T07:43:30.730Z,6.10
2023-03-16T07:45:59.108Z,6.10
2023-03-16T07:48:27.289Z,6.20
2023-03-16T07:50:55.388Z,6.20
2023-03-16T07:53:25.090Z,6.20
2023-03-16T07:55:53.675Z,6.20
2023-03-16T07:58:22.164Z,6.20
2023-03-16T08:00:50.384Z,6.20
2023-03-16T08:03:18.631Z,6.30
2023-03-16T08:05:46.719Z,6.30
2023-03-16T08:08:16.052Z,6.40
2023-03-16T08:10:48.466Z,6.50
2023-03-16T08:13:17.033Z,6.60
2023-03-16T08:15:48.410Z,6.70
2023-03-16T08:18:17.085Z,6.70
2023-03-16T08:20:45.686Z,6.80
2023-03-16T08:23:15.720Z,6.80
2023-03-16T08:25:46.137Z,6.80
2023-03-16T08:28:15.898Z,6.90
2023-03-16T08:30:48.557Z,6.90
2023-03-16T08:33:17.958Z,7.00
2023-03-16T08:35:46.436Z,7.00
2023-03-16T08:38:15.926Z,7.00
2023-03-16T08:40:48.517Z,7.10
2023-03-16T08:43:17.070Z,7.10
2023-03-16T08:45:46.117Z,7.10
2023-03-16T08:48:14.802Z,7.10
2023-03-16T08:50:44.256Z,7.20
2023-03-16T08:53:13.856Z,7.20
2023-03-16T08:55:42.537Z,7.30
2023-03-16T08:58:14.050Z,7.30
2023-03-16T09:00:43.881Z,7.30
2023-03-16T09:03:13.626Z,7.30
2023-03-16T09:05:42.439Z,7.30
2023-03-16T09:08:10.508Z,7.30
2023-03-16T09:10:38.564Z,7.30
2023-03-16T09:13:06.745Z,7.30
2023-03-16T09:15:36.796Z,7.30
2023-03-16T09:18:05.687Z,7.30
2023-03-16T09:20:34.248Z,7.40
2023-03-16T09:23:03.728Z,7.40
2023-03-16T09:25:32.482Z,7.50
2023-03-16T09:28:01.119Z,7.50
2023-03-16T09:30:29.730Z,7.60
2023-03-16T09:32:59.562Z,7.70
2023-03-16T09:35:28.068Z,7.80
2023-03-16T09:38:06.174Z,8.00
2023-03-16T09:40:36.259Z,8.00
2023-03-16T09:43:25.803Z,8.10
2023-03-16T09:46:01.755Z,8.20
2023-03-16T09:48:33.846Z,8.20
2023-03-16T09:51:06.007Z,8.20
2023-03-16T09:53:37.985Z,8.30
2023-03-16T09:56:09.412Z,8.40
2023-03-16T09:58:37.903Z,8.50
2023-03-16T10:01:15.043Z,8.50
2023-03-16T10:04:06.510Z,8.60
2023-03-16T10:06:41.447Z,8.70
2023-03-16T10:09:22.747Z,8.80
2023-03-16T10:11:54.324Z,9.10
2023-03-16T10:14:26.672Z,9.30
2023-03-16T10:17:01.302Z,9.30
2023-03-16T10:19:37.515Z,9.40
2023-03-16T10:22:17.551Z,9.40
2023-03-16T10:24:55.448Z,9.40
2023-03-16T10:27:29.555Z,9.60
2023-03-16T10:29:57.953Z,9.80
2023-03-16T10:32:29.515Z,9.80
2023-03-16T10:35:05.964Z,10.00
2023-03-16T10:37:34.346Z,10.10
2023-03-16T10:40:05.088Z,10.40
2023-03-16T10:42:37.110Z,10.60
2023-03-16T10:45:05.934Z,10.70
2023-03-16T10:47:35.166Z,10.70
2023-03-16T10:50:16.758Z,10.60
2023-03-16T10:52:48.136Z,10.60
2023-03-16T10:55:20.514Z,10.60
2023-03-16T10:57:53.592Z,10.60
2023-03-16T11:00:26.298Z,10.70
2023-03-16T11:02:56.787Z,10.80
2023-03-16T11:05:32.396Z,10.70
2023-03-16T11:08:03.233Z,10.60
2023-03-16T11:10:40.441Z,10.70
2023-03-16T11:13:17.634Z,10.70
2023-03-16T11:15:49.830Z,10.80
2023-03-16T11:18:29.532Z,10.80
2023-03-16T11:21:01.809Z,10.80
2023-03-16T11:23:33.304Z,10.90
2023-03-16T11:26:05.755Z,11.00
2023-03-16T11:28:39.530Z,11.00
2023-03-16T11:31:24.440Z,11.10
2023-03-16T11:33:55.411Z,11.20
2023-03-16T11:36:39.809Z,11.20
2023-03-16T11:39:14.116Z,11.30
2023-03-16T11:41:53.466Z,11.40
2023-03-16T11:44:29.656Z,11.50
2023-03-16T11:47:06.650Z,11.60
2023-03-16T11:49:54.524Z,11.70
2023-03-16T11:52:39.270Z,11.80
2023-03-16T11:55:24.601Z,11.90
2023-03-16T11:58:03.893Z,12.00
2023-03-16T12:00:41.575Z,12.20
2023-03-16T12:03:30.993Z,12.20
2023-03-16T12:06:13.502Z,12.20
2023-03-16T12:09:10.589Z,12.20
2023-03-16T12:11:42.723Z,12.40
2023-03-16T12:14:19.870Z,12.50
2023-03-16T12:16:54.743Z,12.60
2023-03-16T12:19:29.004Z,12.90
2023-03-16T12:22:04.772Z,13.20
2023-03-16T12:24:40.840Z,13.30
2023-03-16T12:27:15.891Z,13.40
2023-03-16T12:30:01.786Z,13.70
2023-03-16T12:32:41.056Z,13.80
2023-03-16T12:35:22.682Z,13.80
2023-03-16T12:37:58.329Z,13.60
2023-03-16T12:40:36.185Z,13.60
2023-03-16T12:43:26.152Z,14.10
2023-03-16T12:46:00.713Z,14.40
2023-03-16T12:48:33.248Z,14.50
2023-03-16T12:51:03.625Z,14.70
2023-03-16T12:53:44.547Z,14.90
2023-03-16T12:56:16.451Z,14.90
2023-03-16T12:58:48.649Z,14.70
2023-03-16T13:01:19.942Z,14.60
2023-03-16T13:03:50.487Z,14.50
2023-03-16T13:06:22.782Z,14.50
2023-03-16T13:08:57.889Z,14.60
2023-03-16T13:11:28.075Z,14.80
2023-03-16T13:14:10.964Z,14.50
2023-03-16T13:16:40.041Z,14.30
2023-03-16T13:19:27.381Z,14.60
2023-03-16T13:22:04.779Z,14.80
2023-03-16T13:24:41.136Z,14.80
2023-03-16T13:27:23.260Z,14.70
2023-03-16T13:30:02.018Z,14.80
2023-03-16T13:32:34.171Z,14.80
2023-03-16T13:35:06.056Z,15.00
2023-03-16T13:37:34.204Z,15.00
2023-03-16T13:40:04.741Z,15.10
2023-03-16T13:42:35.229Z,15.20
2023-03-16T13:45:14.412Z,15.20
2023-03-16T13:47:44.352Z,15.10
2023-03-16T13:50:14.366Z,15.00
2023-03-16T13:52:44.607Z,15.00
2023-03-16T13:55:18.037Z,15.00
2023-03-16T13:57:49.283Z,15.00
2023-03-16T14:00:20.890Z,15.00
2023-03-16T14:02:52.621Z,15.10
2023-03-16T14:05:24.529Z,15.10
2023-03-16T14:07:54.250Z,15.00
2023-03-16T14:10:23.997Z,15.00
2023-03-16T14:12:54.947Z,15.00
2023-03-16T14:15:26.591Z,15.00
2023-03-16T14:17:54.898Z,15.10
2023-03-16T14:20:26.010Z,15.10
2023-03-16T14:22:54.994Z,15.00
2023-03-16T14:25:27.654Z,15.10
2023-03-16T14:28:02.247Z,14.90
2023-03-16T14:30:31.588Z,14.90
2023-03-16T14:33:02.066Z,14.90
2023-03-16T14:35:32.286Z,14.70
2023-03-16T14:38:21.765Z,14.50
2023-03-16T14:40:55.165Z,14.60
2023-03-16T14:43:30.639Z,14.50
2023-03-16T14:45:59.108Z,14.40
2023-03-16T14:48:28.353Z,14.30
2023-03-16T14:50:59.345Z,14.30
2023-03-16T14:53:28.616Z,14.20
2023-03-16T14:55:56.934Z,14.20
2023-03-16T14:58:26.762Z,14.20
2023-03-16T15:00:55.406Z,14.20
2023-03-16T15:03:32.814Z,14.20
2023-03-16T15:06:01.378Z,14.20
2023-03-16T15:08:32.869Z,14.10
2023-03-16T15:11:05.754Z,14.10
2023-03-16T15:14:03.810Z,14.00
2023-03-16T15:16:32.913Z,14.10
2023-03-16T15:19:01.050Z,14.00
2023-03-16T15:21:32.471Z,14.00
2023-03-16T15:24:01.004Z,14.00
2023-03-16T15:26:30.654Z,14.10
2023-03-16T15:29:00.114Z,14.20
2023-03-16T15:31:28.289Z,14.20
2023-03-16T15:33:56.432Z,14.20
2023-03-16T15:36:24.946Z,14.20
2023-03-16T15:38:55.221Z,14.10
2023-03-16T15:41:24.970Z,14.10
2023-03-16T15:44:00.586Z,14.10
2023-03-16T15:46:30.121Z,14.10
2023-03-16T15:48:58.265Z,14.00
2023-03-16T15:51:28.925Z,14.00
2023-03-16T15:53:59.911Z,14.00
2023-03-16T15:56:30.255Z,14.00
2023-03-16T15:59:01.033Z,13.90
2023-03-16T16:01:34.931Z,14.00
2023-03-16T16:04:03.467Z,13.90
2023-03-16T16:06:31.924Z,13.80
2023-03-16T16:08:59.999Z,13.90
2023-03-16T16:11:29.727Z,13.90
2023-03-16T16:13:59.358Z,13.80
2023-03-16T16:16:29.312Z,13.90
2023-03-16T16:18:59.130Z,13.90
2023-03-16T16:21:31.461Z,13.90
2023-03-16T16:24:01.276Z,13.80
2023-03-16T16:26:54.413Z,13.80
2023-03-16T16:29:24.013Z,13.70
2023-03-16T16:31:52.560Z,13.70
2023-03-16T16:34:25.197Z,13.70
2023-03-16T16:36:53.806Z,13.60
2023-03-16T16:39:21.938Z,13.50
2023-03-16T16:41:54.427Z,13.50
2023-03-16T16:44:25.264Z,13.50
2023-03-16T16:46:54.289Z,13.50
2023-03-16T16:49:25.931Z,13.50
2023-03-16T16:51:54.537Z,13.50
2023-03-16T16:54:24.719Z,13.40
2023-03-16T16:56:55.262Z,13.30
2023-03-16T16:59:26.119Z,13.20
2023-03-16T17:01:54.944Z,13.10
2023-03-16T17:04:27.092Z,13.00
2023-03-16T17:06:58.319Z,13.00
2023-03-16T17:09:27.770Z,12.90
2023-03-16T17:11:58.797Z,12.80
2023-03-16T17:14:28.685Z,12.70
2023-03-16T17:16:57.309Z,12.60
2023-03-16T17:19:28.814Z,12.60
2023-03-16T17:21:58.875Z,12.50
2023-03-16T17:24:28.747Z,12.50
2023-03-16T17:26:59.839Z,12.40
2023-03-16T17:29:31.412Z,12.40
2023-03-16T17:32:00.774Z,12.30
2023-03-16T17:34:33.531Z,12.20
2023-03-16T17:37:02.731Z,12.10
2023-03-16T17:39:32.191Z,12.10
2023-03-16T17:42:02.529Z,12.00
2023-03-16T17:44:33.650Z,12.00
2023-03-16T17:47:01.986Z,11.90
2023-03-16T17:49:32.719Z,11.80
2023-03-16T17:52:01.078Z,11.70
2023-03-16T17:54:29.041Z,11.70
2023-03-16T17:56:57.211Z,11.60
2023-03-16T17:59:25.861Z,11.50
2023-03-16T18:01:54.016Z,11.50
2023-03-16T18:04:25.029Z,11.50
2023-03-16T18:06:55.429Z,11.60
2023-03-16T18:09:23.554Z,11.50
2023-03-16T18:11:52.901Z,11.50
2023-03-16T18:14:34.913Z,11.40
2023-03-16T18:17:05.326Z,11.50
2023-03-16T18:19:34.399Z,11.40
2023-03-16T18:22:03.825Z,11.40
2023-03-16T18:24:31.928Z,11.30
2023-03-16T18:27:00.192Z,11.30
2023-03-16T18:29:28.663Z,11.30
2023-03-16T18:31:59.267Z,11.30
2023-03-16T18:34:31.490Z,11.20
2023-03-16T18:37:06.064Z,11.20
2023-03-16T18:39:35.546Z,11.20
2023-03-16T18:42:03.624Z,11.20
2023-03-16T18:44:32.552Z,11.20
2023-03-16T18:47:03.764Z,11.20
2023-03-16T18:49:34.999Z,11.10
2023-03-16T18:52:03.668Z,11.10
2023-03-16T18:54:35.352Z,11.10
2023-03-16T18:57:06.777Z,10.90
2023-03-16T18:59:34.871Z,10.90
2023-03-16T19:02:03.089Z,10.90
2023-03-16T19:04:32.862Z,10.90
2023-03-16T19:07:01.156Z,10.80
2023-03-16T19:09:31.092Z,10.80
2023-03-16T19:12:00.261Z,10.70
2023-03-16T19:14:33.189Z,10.60
2023-03-16T19:17:01.674Z,10.50
2023-03-16T19:19:30.058Z,10.50
2023-03-16T19:22:03.440Z,10.40
2023-03-16T19:24:35.734Z,10.40
2023-03-16T19:27:03.986Z,10.30
2023-03-16T19:29:36.488Z,10.20
2023-03-16T19:32:04.671Z,10.20
2023-03-16T19:34:32.787Z,10.20
2023-03-16T19:37:01.007Z,10.10
2023-03-16T19:39:29.331Z,10.20
2023-03-16T19:41:59.162Z,10.10
2023-03-16T19:44:29.468Z,10.00
2023-03-16T19:47:00.904Z,10.00
2023-03-16T19:49:29.412Z,10.00
2023-03-16T19:51:58.081Z,9.90
2023-03-16T19:54:28.499Z,9.90
2023-03-16T19:56:59.000Z,9.90
2023-03-16T19:59:31.983Z,9.90
2023-03-16T20:02:01.587Z,9.90
2023-03-16T20:04:30.321Z,9.90
2023-03-16T20:06:58.450Z,10.00
2023-03-16T20:09:27.397Z,10.10
2023-03-16T20:11:55.837Z,10.00
2023-03-16T20:14:30.142Z,10.00
2023-03-16T20:17:01.156Z,9.90
2023-03-16T20:19:29.641Z,9.90
2023-03-16T20:21:57.735Z,10.00
2023-03-16T20:24:26.408Z,9.90
2023-03-16T20:26:55.444Z,10.00
2023-03-16T20:29:28.507Z,10.00
2023-03-16T20:31:57.082Z,10.00
2023-03-16T20:34:29.072Z,10.00
2023-03-16T20:36:57.791Z,10.00
2023-03-16T20:39:25.968Z,9.90
2023-03-16T20:41:54.339Z,9.90
2023-03-16T20:44:23.620Z,9.90
2023-03-16T20:46:51.992Z,10.00
2023-03-16T20:52:21.744Z,10.00
2023-03-16T20:54:50.211Z,10.10
2023-03-16T20:57:21.577Z,10.00
2023-03-16T20:59:51.473Z,10.10
2023-03-16T21:02:28.235Z,10.20
2023-03-16T21:04:57.043Z,10.10
2023-03-16T21:07:27.162Z,10.10
2023-03-16T21:09:55.255Z,10.10
2023-03-16T21:12:26.768Z,10.10
2023-03-16T21:14:55.256Z,10.00
2023-03-16T21:17:26.607Z,9.90
2023-03-16T21:19:55.196Z,9.90
2023-03-16T21:22:27.223Z,9.80
2023-03-16T21:24:55.717Z,9.90
2023-03-16T21:27:26.668Z,9.80
2023-03-16T21:29:55.575Z,9.80
2023-03-16T21:32:25.969Z,9.70
2023-03-16T21:34:55.280Z,9.70
2023-03-16T21:37:24.379Z,9.60
2023-03-16T21:39:53.834Z,9.60
2023-03-16T21:42:22.191Z,9.60
2023-03-16T21:44:50.241Z,9.50
2023-03-16T21:47:26.087Z,9.40
2023-03-16T21:49:54.812Z,9.50
2023-03-16T21:52:24.606Z,9.40
2023-03-16T21:54:55.032Z,9.40
2023-03-16T21:57:23.422Z,9.40
2023-03-16T21:59:51.861Z,9.40
2023-03-16T22:02:23.010Z,9.40
2023-03-16T22:04:52.294Z,9.30
2023-03-16T22:07:23.070Z,9.30
2023-03-16T22:09:51.332Z,9.30
2023-03-16T22:12:20.765Z,9.30
2023-03-16T22:14:48.832Z,9.20
2023-03-16T22:17:22.107Z,9.10
2023-03-16T22:19:50.298Z,9.10
2023-03-16T22:22:18.978Z,9.10
2023-03-16T22:24:47.463Z,9.10
2023-03-16T22:27:26.031Z,9.10
2023-03-16T22:29:55.520Z,9.00
2023-03-16T22:32:23.851Z,9.00
2023-03-16T22:34:55.921Z,9.00
2023-03-16T22:37:28.110Z,8.90
2023-03-16T22:39:58.457Z,8.90
2023-03-16T22:42:30.393Z,8.90
2023-03-16T22:45:00.762Z,8.90
2023-03-16T22:47:32.280Z,8.90
2023-03-16T22:50:00.667Z,8.90
2023-03-16T22:52:31.917Z,8.90
2023-03-16T22:55:01.757Z,8.80
2023-03-16T22:57:30.659Z,8.90
2023-03-16T23:00:01.274Z,8.90
2023-03-16T23:02:30.556Z,8.90
2023-03-16T23:04:58.670Z,8.90
2023-03-16T23:07:27.140Z,8.90
2023-03-16T23:09:55.649Z,8.90
2023-03-16T23:12:23.729Z,8.90
2023-03-16T23:14:51.908Z,8.90
2023-03-16T23:17:23.177Z,8.80
2023-03-16T23:19:51.942Z,8.90
2023-03-16T23:22:20.047Z,8.90
2023-03-16T23:24:48.080Z,8.80
2023-03-16T23:27:18.800Z,8.80
2023-03-16T23:29:47.481Z,8.90
2023-03-16T23:32:16.862Z,8.90
2023-03-16T23:34:46.432Z,8.80
2023-03-16T23:37:14.482Z,8.80
2023-03-16T23:39:42.605Z,8.80
2023-03-16T23:42:11.022Z,8.80
2023-03-16T23:44:39.201Z,8.80
2023-03-16T23:47:07.478Z,8.80
2023-03-16T23:49:39.315Z,8.80
2023-03-16T23:52:12.220Z,8.80
2023-03-16T23:54:40.499Z,8.70
2023-03-16T23:57:10.151Z,8.70
2023-03-16T23:59:38.234Z,8.70
